sensor_id;sensor_type;location;lat;lon;timestamp;temperature;humidity
18753;DHT22;9505;50.882;5.350;2023-06-05T00:00:53;15.60;99.90
18753;DHT22;9505;50.882;5.350;2023-06-05T00:03:19;15.70;99.90
18753;DHT22;9505;50.882;5.350;2023-06-05T00:05:44;15.60;99.90
18753;DHT22;9505;50.882;5.350;2023-06-05T00:08:10;15.60;99.90
18753;DHT22;9505;50.882;5.350;2023-06-05T00:10:36;15.60;99.90
18753;DHT22;9505;50.882;5.350;2023-06-05T00:13:01;15.50;99.90
18753;DHT22;9505;50.882;5.350;2023-06-05T00:15:27;15.50;99.90
18753;DHT22;9505;50.882;5.350;2023-06-05T00:17:52;15.40;99.90
18753;DHT22;9505;50.882;5.350;2023-06-05T00:20:20;15.40;99.90
18753;DHT22;9505;50.882;5.350;2023-06-05T00:22:46;15.40;99.90
18753;DHT22;9505;50.882;5.350;2023-06-05T00:25:12;15.40;99.90
18753;DHT22;9505;50.882;5.350;2023-06-05T00:27:38;15.40;99.90
18753;DHT22;9505;50.882;5.350;2023-06-05T00:30:07;15.30;99.90
18753;DHT22;9505;50.882;5.350;2023-06-05T00:32:33;15.30;99.90
18753;DHT22;9505;50.882;5.350;2023-06-05T00:34:59;15.30;99.90
18753;DHT22;9505;50.882;5.350;2023-06-05T00:37:25;15.20;99.90
18753;DHT22;9505;50.882;5.350;2023-06-05T00:39:52;15.10;99.90
18753;DHT22;9505;50.882;5.350;2023-06-05T00:42:18;15.10;99.90
18753;DHT22;9505;50.882;5.350;2023-06-05T00:44:43;15.00;99.90
18753;DHT22;9505;50.882;5.350;2023-06-05T00:47:09;15.00;99.90
18753;DHT22;9505;50.882;5.350;2023-06-05T00:49:36;15.00;99.90
18753;DHT22;9505;50.882;5.350;2023-06-05T00:52:02;15.00;99.90
18753;DHT22;9505;50.882;5.350;2023-06-05T00:54:28;14.90;99.90
18753;DHT22;9505;50.882;5.350;2023-06-05T00:56:54;14.90;99.90
18753;DHT22;9505;50.882;5.350;2023-06-05T00:59:20;14.80;99.90
18753;DHT22;9505;50.882;5.350;2023-06-05T01:01:46;14.70;99.90
18753;DHT22;9505;50.882;5.350;2023-06-05T01:04:13;14.60;99.90
18753;DHT22;9505;50.882;5.350;2023-06-05T01:06:39;14.60;99.90
18753;DHT22;9505;50.882;5.350;2023-06-05T01:09:07;14.50;99.90
18753;DHT22;9505;50.882;5.350;2023-06-05T01:14:14;14.40;99.90
18753;DHT22;9505;50.882;5.350;2023-06-05T01:16:42;14.40;99.90
18753;DHT22;9505;50.882;5.350;2023-06-05T01:19:14;14.40;99.90
18753;DHT22;9505;50.882;5.350;2023-06-05T01:21:40;14.40;99.90
18753;DHT22;9505;50.882;5.350;2023-06-05T01:24:05;14.30;99.90
18753;DHT22;9505;50.882;5.350;2023-06-05T01:26:42;14.30;99.90
18753;DHT22;9505;50.882;5.350;2023-06-05T01:29:11;14.20;99.90
18753;DHT22;9505;50.882;5.350;2023-06-05T01:31:42;14.20;99.90
18753;DHT22;9505;50.882;5.350;2023-06-05T01:34:10;14.10;99.90
18753;DHT22;9505;50.882;5.350;2023-06-05T01:36:40;14.10;99.90
18753;DHT22;9505;50.882;5.350;2023-06-05T01:39:06;14.10;99.90
18753;DHT22;9505;50.882;5.350;2023-06-05T01:41:33;14.10;99.90
18753;DHT22;9505;50.882;5.350;2023-06-05T01:44:01;14.00;99.90
18753;DHT22;9505;50.882;5.350;2023-06-05T01:46:27;14.00;99.90
18753;DHT22;9505;50.882;5.350;2023-06-05T01:48:52;14.00;99.90
18753;DHT22;9505;50.882;5.350;2023-06-05T01:51:19;14.00;99.90
18753;DHT22;9505;50.882;5.350;2023-06-05T01:53:45;13.90;99.90
18753;DHT22;9505;50.882;5.350;2023-06-05T01:56:15;13.90;99.90
18753;DHT22;9505;50.882;5.350;2023-06-05T01:58:46;13.80;99.90
18753;DHT22;9505;50.882;5.350;2023-06-05T02:01:11;13.80;99.90
18753;DHT22;9505;50.882;5.350;2023-06-05T02:03:37;13.80;99.90
18753;DHT22;9505;50.882;5.350;2023-06-05T02:06:03;13.70;99.90
18753;DHT22;9505;50.882;5.350;2023-06-05T02:08:29;13.70;99.90
18753;DHT22;9505;50.882;5.350;2023-06-05T02:10:54;13.70;99.90
18753;DHT22;9505;50.882;5.350;2023-06-05T02:13:20;13.60;99.90
18753;DHT22;9505;50.882;5.350;2023-06-05T02:15:48;13.60;99.90
18753;DHT22;9505;50.882;5.350;2023-06-05T02:18:17;13.60;99.90
18753;DHT22;9505;50.882;5.350;2023-06-05T02:20:43;13.60;99.90
18753;DHT22;9505;50.882;5.350;2023-06-05T02:23:08;13.50;99.90
18753;DHT22;9505;50.882;5.350;2023-06-05T02:25:34;13.50;99.90
18753;DHT22;9505;50.882;5.350;2023-06-05T02:27:59;13.50;99.90
18753;DHT22;9505;50.882;5.350;2023-06-05T02:30:25;13.40;99.90
18753;DHT22;9505;50.882;5.350;2023-06-05T02:32:51;13.40;99.90
18753;DHT22;9505;50.882;5.350;2023-06-05T02:35:26;13.40;99.90
18753;DHT22;9505;50.882;5.350;2023-06-05T02:37:51;13.40;99.90
18753;DHT22;9505;50.882;5.350;2023-06-05T02:40:17;13.30;99.90
18753;DHT22;9505;50.882;5.350;2023-06-05T02:42:43;13.30;99.90
18753;DHT22;9505;50.882;5.350;2023-06-05T02:45:09;13.20;99.90
18753;DHT22;9505;50.882;5.350;2023-06-05T02:47:34;13.20;99.90
18753;DHT22;9505;50.882;5.350;2023-06-05T02:50:01;13.20;99.90
18753;DHT22;9505;50.882;5.350;2023-06-05T02:52:26;13.20;99.90
18753;DHT22;9505;50.882;5.350;2023-06-05T02:55:00;13.10;99.90
18753;DHT22;9505;50.882;5.350;2023-06-05T02:57:26;13.10;99.90
18753;DHT22;9505;50.882;5.350;2023-06-05T02:59:52;13.10;99.90
18753;DHT22;9505;50.882;5.350;2023-06-05T03:02:18;13.00;99.90
18753;DHT22;9505;50.882;5.350;2023-06-05T03:04:43;13.00;99.90
18753;DHT22;9505;50.882;5.350;2023-06-05T03:07:09;13.00;99.90
18753;DHT22;9505;50.882;5.350;2023-06-05T03:09:35;12.90;99.90
18753;DHT22;9505;50.882;5.350;2023-06-05T03:12:02;12.90;99.90
18753;DHT22;9505;50.882;5.350;2023-06-05T03:14:27;12.80;99.90
18753;DHT22;9505;50.882;5.350;2023-06-05T03:16:53;12.80;99.90
18753;DHT22;9505;50.882;5.350;2023-06-05T03:19:19;12.80;99.90
18753;DHT22;9505;50.882;5.350;2023-06-05T03:21:45;12.80;99.90
18753;DHT22;9505;50.882;5.350;2023-06-05T03:24:14;12.70;99.90
18753;DHT22;9505;50.882;5.350;2023-06-05T03:26:43;12.70;99.90
18753;DHT22;9505;50.882;5.350;2023-06-05T03:29:12;12.70;99.90
18753;DHT22;9505;50.882;5.350;2023-06-05T03:31:37;12.60;99.90
18753;DHT22;9505;50.882;5.350;2023-06-05T03:34:03;12.60;99.90
18753;DHT22;9505;50.882;5.350;2023-06-05T03:36:30;12.50;99.90
18753;DHT22;9505;50.882;5.350;2023-06-05T03:38:58;12.50;99.90
18753;DHT22;9505;50.882;5.350;2023-06-05T03:41:24;12.50;99.90
18753;DHT22;9505;50.882;5.350;2023-06-05T03:43:51;12.50;99.90
18753;DHT22;9505;50.882;5.350;2023-06-05T03:46:17;12.50;99.90
18753;DHT22;9505;50.882;5.350;2023-06-05T03:48:46;12.50;99.90
18753;DHT22;9505;50.882;5.350;2023-06-05T03:51:12;12.50;99.90
18753;DHT22;9505;50.882;5.350;2023-06-05T03:53:39;12.50;99.90
18753;DHT22;9505;50.882;5.350;2023-06-05T03:56:08;12.50;99.90
18753;DHT22;9505;50.882;5.350;2023-06-05T03:58:34;12.50;99.90
18753;DHT22;9505;50.882;5.350;2023-06-05T04:01:00;12.50;99.90
18753;DHT22;9505;50.882;5.350;2023-06-05T04:03:25;12.50;99.90
18753;DHT22;9505;50.882;5.350;2023-06-05T04:05:52;12.60;99.90
18753;DHT22;9505;50.882;5.350;2023-06-05T04:08:18;12.60;99.90
18753;DHT22;9505;50.882;5.350;2023-06-05T04:10:43;12.60;99.90
18753;DHT22;9505;50.882;5.350;2023-06-05T04:13:09;12.60;99.90
18753;DHT22;9505;50.882;5.350;2023-06-05T04:15:35;12.60;99.90
18753;DHT22;9505;50.882;5.350;2023-06-05T04:18:01;12.70;99.90
18753;DHT22;9505;50.882;5.350;2023-06-05T04:20:26;12.70;99.90
18753;DHT22;9505;50.882;5.350;2023-06-05T04:22:52;12.80;99.90
18753;DHT22;9505;50.882;5.350;2023-06-05T04:25:17;12.80;99.90
18753;DHT22;9505;50.882;5.350;2023-06-05T04:27:45;12.80;99.90
18753;DHT22;9505;50.882;5.350;2023-06-05T04:30:12;12.90;99.90
18753;DHT22;9505;50.882;5.350;2023-06-05T04:32:39;13.00;99.90
18753;DHT22;9505;50.882;5.350;2023-06-05T04:35:05;13.00;99.90
18753;DHT22;9505;50.882;5.350;2023-06-05T04:37:32;13.10;99.90
18753;DHT22;9505;50.882;5.350;2023-06-05T04:39:58;13.10;99.90
18753;DHT22;9505;50.882;5.350;2023-06-05T04:42:27;13.10;99.90
18753;DHT22;9505;50.882;5.350;2023-06-05T04:44:57;13.20;99.90
18753;DHT22;9505;50.882;5.350;2023-06-05T04:47:23;13.30;99.90
18753;DHT22;9505;50.882;5.350;2023-06-05T04:49:48;13.30;99.90
18753;DHT22;9505;50.882;5.350;2023-06-05T04:52:17;13.40;99.90
18753;DHT22;9505;50.882;5.350;2023-06-05T04:54:43;13.40;99.90
18753;DHT22;9505;50.882;5.350;2023-06-05T04:57:09;13.50;99.90
18753;DHT22;9505;50.882;5.350;2023-06-05T04:59:36;13.60;99.90
18753;DHT22;9505;50.882;5.350;2023-06-05T05:02:02;13.70;99.90
18753;DHT22;9505;50.882;5.350;2023-06-05T05:04:28;13.70;99.90
18753;DHT22;9505;50.882;5.350;2023-06-05T05:06:53;13.70;99.90
18753;DHT22;9505;50.882;5.350;2023-06-05T05:09:19;13.80;99.90
18753;DHT22;9505;50.882;5.350;2023-06-05T05:11:45;13.90;99.90
18753;DHT22;9505;50.882;5.350;2023-06-05T05:14:10;14.00;99.90
18753;DHT22;9505;50.882;5.350;2023-06-05T05:16:36;14.10;99.90
18753;DHT22;9505;50.882;5.350;2023-06-05T05:19:01;14.20;99.90
18753;DHT22;9505;50.882;5.350;2023-06-05T05:21:27;14.30;99.90
18753;DHT22;9505;50.882;5.350;2023-06-05T05:23:53;14.30;99.90
18753;DHT22;9505;50.882;5.350;2023-06-05T05:26:19;14.40;99.90
18753;DHT22;9505;50.882;5.350;2023-06-05T05:28:44;14.50;99.90
18753;DHT22;9505;50.882;5.350;2023-06-05T05:31:10;14.60;99.90
18753;DHT22;9505;50.882;5.350;2023-06-05T05:33:36;14.70;99.90
18753;DHT22;9505;50.882;5.350;2023-06-05T05:36:01;15.90;99.90
18753;DHT22;9505;50.882;5.350;2023-06-05T05:38:27;18.40;99.90
18753;DHT22;9505;50.882;5.350;2023-06-05T05:40:53;21.00;99.90
18753;DHT22;9505;50.882;5.350;2023-06-05T05:43:19;22.50;99.90
18753;DHT22;9505;50.882;5.350;2023-06-05T05:45:45;23.70;99.90
18753;DHT22;9505;50.882;5.350;2023-06-05T05:48:10;24.60;99.90
18753;DHT22;9505;50.882;5.350;2023-06-05T05:50:36;24.60;99.90
18753;DHT22;9505;50.882;5.350;2023-06-05T05:53:02;25.50;99.50
18753;DHT22;9505;50.882;5.350;2023-06-05T05:55:28;26.30;98.00
18753;DHT22;9505;50.882;5.350;2023-06-05T05:57:54;27.10;95.50
18753;DHT22;9505;50.882;5.350;2023-06-05T06:00:20;27.40;93.90
18753;DHT22;9505;50.882;5.350;2023-06-05T06:02:46;27.60;92.60
18753;DHT22;9505;50.882;5.350;2023-06-05T06:05:12;27.80;92.20
18753;DHT22;9505;50.882;5.350;2023-06-05T06:07:38;28.30;91.00
18753;DHT22;9505;50.882;5.350;2023-06-05T06:10:06;28.90;89.60
18753;DHT22;9505;50.882;5.350;2023-06-05T06:12:33;29.40;88.40
18753;DHT22;9505;50.882;5.350;2023-06-05T06:14:59;30.10;86.10
18753;DHT22;9505;50.882;5.350;2023-06-05T06:17:25;30.20;82.20
18753;DHT22;9505;50.882;5.350;2023-06-05T06:19:51;29.90;83.50
18753;DHT22;9505;50.882;5.350;2023-06-05T06:22:18;30.70;82.00
18753;DHT22;9505;50.882;5.350;2023-06-05T06:24:44;30.90;78.00
18753;DHT22;9505;50.882;5.350;2023-06-05T06:27:10;30.80;78.10
18753;DHT22;9505;50.882;5.350;2023-06-05T06:29:49;30.80;77.50
18753;DHT22;9505;50.882;5.350;2023-06-05T06:32:18;30.30;76.70
18753;DHT22;9505;50.882;5.350;2023-06-05T06:34:44;30.40;77.30
18753;DHT22;9505;50.882;5.350;2023-06-05T06:37:14;30.80;74.90
18753;DHT22;9505;50.882;5.350;2023-06-05T06:39:41;30.40;75.40
18753;DHT22;9505;50.882;5.350;2023-06-05T06:42:08;30.80;74.40
18753;DHT22;9505;50.882;5.350;2023-06-05T06:44:35;30.70;74.00
18753;DHT22;9505;50.882;5.350;2023-06-05T06:47:01;30.50;75.50
18753;DHT22;9505;50.882;5.350;2023-06-05T06:49:27;31.00;74.60
18753;DHT22;9505;50.882;5.350;2023-06-05T06:51:53;32.00;74.60
18753;DHT22;9505;50.882;5.350;2023-06-05T06:54:18;32.60;71.50
18753;DHT22;9505;50.882;5.350;2023-06-05T06:56:44;32.40;70.50
18753;DHT22;9505;50.882;5.350;2023-06-05T06:59:14;32.50;69.60
18753;DHT22;9505;50.882;5.350;2023-06-05T07:01:44;32.80;68.40
18753;DHT22;9505;50.882;5.350;2023-06-05T07:04:12;32.60;69.50
18753;DHT22;9505;50.882;5.350;2023-06-05T07:06:38;33.20;67.00
18753;DHT22;9505;50.882;5.350;2023-06-05T07:09:03;32.90;66.30
18753;DHT22;9505;50.882;5.350;2023-06-05T07:11:29;32.70;68.20
18753;DHT22;9505;50.882;5.350;2023-06-05T07:13:55;33.10;68.40
18753;DHT22;9505;50.882;5.350;2023-06-05T07:16:20;33.80;68.80
18753;DHT22;9505;50.882;5.350;2023-06-05T07:18:46;33.20;65.60
18753;DHT22;9505;50.882;5.350;2023-06-05T07:21:12;32.50;68.00
18753;DHT22;9505;50.882;5.350;2023-06-05T07:23:38;32.20;67.40
18753;DHT22;9505;50.882;5.350;2023-06-05T07:26:04;31.80;67.60
18753;DHT22;9505;50.882;5.350;2023-06-05T07:28:30;32.20;67.10
18753;DHT22;9505;50.882;5.350;2023-06-05T07:30:56;31.80;67.60
18753;DHT22;9505;50.882;5.350;2023-06-05T07:33:21;32.60;67.20
18753;DHT22;9505;50.882;5.350;2023-06-05T07:35:47;32.70;66.60
18753;DHT22;9505;50.882;5.350;2023-06-05T07:38:14;32.90;65.90
18753;DHT22;9505;50.882;5.350;2023-06-05T07:40:40;33.80;64.40
18753;DHT22;9505;50.882;5.350;2023-06-05T07:43:05;34.40;64.90
18753;DHT22;9505;50.882;5.350;2023-06-05T07:45:31;34.20;63.80
18753;DHT22;9505;50.882;5.350;2023-06-05T07:47:57;34.00;64.60
18753;DHT22;9505;50.882;5.350;2023-06-05T07:50:22;33.80;63.40
18753;DHT22;9505;50.882;5.350;2023-06-05T07:52:48;32.20;64.20
18753;DHT22;9505;50.882;5.350;2023-06-05T07:55:14;31.20;67.20
18753;DHT22;9505;50.882;5.350;2023-06-05T07:57:40;31.20;68.50
18753;DHT22;9505;50.882;5.350;2023-06-05T08:00:07;31.70;66.70
18753;DHT22;9505;50.882;5.350;2023-06-05T08:02:35;30.90;67.70
18753;DHT22;9505;50.882;5.350;2023-06-05T08:05:02;31.00;70.30
18753;DHT22;9505;50.882;5.350;2023-06-05T08:07:28;30.30;71.90
18753;DHT22;9505;50.882;5.350;2023-06-05T08:09:54;27.90;73.60
18753;DHT22;9505;50.882;5.350;2023-06-05T08:12:19;26.90;82.00
18753;DHT22;9505;50.882;5.350;2023-06-05T08:14:45;26.10;83.60
18753;DHT22;9505;50.882;5.350;2023-06-05T08:17:10;25.30;84.30
18753;DHT22;9505;50.882;5.350;2023-06-05T08:19:36;24.30;88.60
18753;DHT22;9505;50.882;5.350;2023-06-05T08:22:02;23.30;90.20
18753;DHT22;9505;50.882;5.350;2023-06-05T08:24:30;22.60;92.30
18753;DHT22;9505;50.882;5.350;2023-06-05T08:26:56;23.00;93.60
18753;DHT22;9505;50.882;5.350;2023-06-05T08:29:22;23.60;92.20
18753;DHT22;9505;50.882;5.350;2023-06-05T08:31:47;23.50;92.60
18753;DHT22;9505;50.882;5.350;2023-06-05T08:34:13;23.40;93.30
18753;DHT22;9505;50.882;5.350;2023-06-05T08:36:38;23.70;93.20
18753;DHT22;9505;50.882;5.350;2023-06-05T08:39:04;23.60;92.60
18753;DHT22;9505;50.882;5.350;2023-06-05T08:41:30;23.70;92.90
18753;DHT22;9505;50.882;5.350;2023-06-05T08:43:57;23.60;92.90
18753;DHT22;9505;50.882;5.350;2023-06-05T08:46:27;23.80;93.90
18753;DHT22;9505;50.882;5.350;2023-06-05T08:48:53;24.30;92.70
18753;DHT22;9505;50.882;5.350;2023-06-05T08:51:21;24.50;92.00
18753;DHT22;9505;50.882;5.350;2023-06-05T08:53:54;24.40;91.50
18753;DHT22;9505;50.882;5.350;2023-06-05T08:56:22;24.10;92.50
18753;DHT22;9505;50.882;5.350;2023-06-05T08:58:48;23.50;93.60
18753;DHT22;9505;50.882;5.350;2023-06-05T09:01:15;24.00;93.80
18753;DHT22;9505;50.882;5.350;2023-06-05T09:03:41;24.60;92.60
18753;DHT22;9505;50.882;5.350;2023-06-05T09:06:10;25.10;92.30
18753;DHT22;9505;50.882;5.350;2023-06-05T09:08:36;25.30;92.30
18753;DHT22;9505;50.882;5.350;2023-06-05T09:11:25;25.40;91.10
18753;DHT22;9505;50.882;5.350;2023-06-05T09:13:51;25.80;91.40
18753;DHT22;9505;50.882;5.350;2023-06-05T09:16:34;26.00;91.10
18753;DHT22;9505;50.882;5.350;2023-06-05T09:19:00;25.80;92.10
18753;DHT22;9505;50.882;5.350;2023-06-05T09:21:28;26.10;92.10
18753;DHT22;9505;50.882;5.350;2023-06-05T09:31:49;26.50;90.10
18753;DHT22;9505;50.882;5.350;2023-06-05T09:34:44;26.40;87.70
18753;DHT22;9505;50.882;5.350;2023-06-05T09:37:12;26.10;83.50
18753;DHT22;9505;50.882;5.350;2023-06-05T09:39:41;25.80;90.00
18753;DHT22;9505;50.882;5.350;2023-06-05T09:42:11;26.00;89.60
18753;DHT22;9505;50.882;5.350;2023-06-05T09:44:37;26.10;90.20
18753;DHT22;9505;50.882;5.350;2023-06-05T09:47:07;26.40;90.20
18753;DHT22;9505;50.882;5.350;2023-06-05T09:52:07;26.10;88.60
18753;DHT22;9505;50.882;5.350;2023-06-05T09:54:36;25.60;89.30
18753;DHT22;9505;50.882;5.350;2023-06-05T09:57:04;26.00;89.40
18753;DHT22;9505;50.882;5.350;2023-06-05T09:59:34;26.50;88.60
18753;DHT22;9505;50.882;5.350;2023-06-05T10:02:03;27.00;89.30
18753;DHT22;9505;50.882;5.350;2023-06-05T10:04:33;27.30;90.10
18753;DHT22;9505;50.882;5.350;2023-06-05T10:07:03;27.20;86.90
18753;DHT22;9505;50.882;5.350;2023-06-05T10:09:30;27.30;86.70
18753;DHT22;9505;50.882;5.350;2023-06-05T10:11:57;27.10;87.10
18753;DHT22;9505;50.882;5.350;2023-06-05T10:14:24;27.00;85.30
18753;DHT22;9505;50.882;5.350;2023-06-05T10:16:50;27.30;89.90
18753;DHT22;9505;50.882;5.350;2023-06-05T10:19:20;27.20;84.50
18753;DHT22;9505;50.882;5.350;2023-06-05T10:21:49;27.00;83.80
18753;DHT22;9505;50.882;5.350;2023-06-05T10:24:24;27.00;87.20
18753;DHT22;9505;50.882;5.350;2023-06-05T10:30:11;27.50;87.30
18753;DHT22;9505;50.882;5.350;2023-06-05T10:33:11;27.70;81.90
18753;DHT22;9505;50.882;5.350;2023-06-05T10:38:30;27.30;86.80
18753;DHT22;9505;50.882;5.350;2023-06-05T10:40:58;27.60;84.70
18753;DHT22;9505;50.882;5.350;2023-06-05T10:43:52;27.90;83.80
18753;DHT22;9505;50.882;5.350;2023-06-05T10:49:13;27.90;78.60
18753;DHT22;9505;50.882;5.350;2023-06-05T10:51:43;27.30;83.40
18753;DHT22;9505;50.882;5.350;2023-06-05T10:54:14;26.90;81.50
18753;DHT22;9505;50.882;5.350;2023-06-05T10:56:52;26.60;83.20
18753;DHT22;9505;50.882;5.350;2023-06-05T10:59:20;27.00;85.00
18753;DHT22;9505;50.882;5.350;2023-06-05T11:15:08;27.20;77.90
18753;DHT22;9505;50.882;5.350;2023-06-05T11:17:36;27.40;80.20
18753;DHT22;9505;50.882;5.350;2023-06-05T11:20:06;27.50;75.10
18753;DHT22;9505;50.882;5.350;2023-06-05T11:27:56;27.40;79.40
18753;DHT22;9505;50.882;5.350;2023-06-05T11:30:28;27.30;78.60
18753;DHT22;9505;50.882;5.350;2023-06-05T11:33:05;27.20;79.00
18753;DHT22;9505;50.882;5.350;2023-06-05T11:35:31;27.50;76.40
18753;DHT22;9505;50.882;5.350;2023-06-05T11:38:08;28.00;75.80
18753;DHT22;9505;50.882;5.350;2023-06-05T11:40:35;27.90;76.30
18753;DHT22;9505;50.882;5.350;2023-06-05T11:43:12;27.70;75.70
18753;DHT22;9505;50.882;5.350;2023-06-05T11:45:39;27.90;75.20
18753;DHT22;9505;50.882;5.350;2023-06-05T11:48:11;27.90;78.30
18753;DHT22;9505;50.882;5.350;2023-06-05T11:50:39;28.10;81.90
18753;DHT22;9505;50.882;5.350;2023-06-05T11:53:06;28.20;81.10
18753;DHT22;9505;50.882;5.350;2023-06-05T11:55:32;27.90;76.20
18753;DHT22;9505;50.882;5.350;2023-06-05T12:00:48;27.80;72.80
18753;DHT22;9505;50.882;5.350;2023-06-05T12:03:23;28.00;72.50
18753;DHT22;9505;50.882;5.350;2023-06-05T12:05:49;28.00;74.20
18753;DHT22;9505;50.882;5.350;2023-06-05T12:08:22;27.90;72.50
18753;DHT22;9505;50.882;5.350;2023-06-05T12:10:51;27.60;70.70
18753;DHT22;9505;50.882;5.350;2023-06-05T12:13:16;27.30;74.10
18753;DHT22;9505;50.882;5.350;2023-06-05T12:15:42;27.30;72.90
18753;DHT22;9505;50.882;5.350;2023-06-05T12:18:07;27.70;69.10
18753;DHT22;9505;50.882;5.350;2023-06-05T12:20:38;27.60;68.30
18753;DHT22;9505;50.882;5.350;2023-06-05T12:23:05;27.50;70.40
18753;DHT22;9505;50.882;5.350;2023-06-05T12:25:32;27.50;68.10
18753;DHT22;9505;50.882;5.350;2023-06-05T12:27:57;27.40;72.20
18753;DHT22;9505;50.882;5.350;2023-06-05T12:30:24;27.90;73.80
18753;DHT22;9505;50.882;5.350;2023-06-05T12:32:50;28.70;72.50
18753;DHT22;9505;50.882;5.350;2023-06-05T12:35:23;28.70;68.10
18753;DHT22;9505;50.882;5.350;2023-06-05T12:37:49;28.90;65.90
18753;DHT22;9505;50.882;5.350;2023-06-05T12:40:17;28.90;69.00
18753;DHT22;9505;50.882;5.350;2023-06-05T12:42:47;28.90;66.30
18753;DHT22;9505;50.882;5.350;2023-06-05T12:45:13;28.70;67.70
18753;DHT22;9505;50.882;5.350;2023-06-05T12:47:40;28.90;70.00
18753;DHT22;9505;50.882;5.350;2023-06-05T12:50:07;29.00;72.60
18753;DHT22;9505;50.882;5.350;2023-06-05T12:52:37;29.10;68.90
18753;DHT22;9505;50.882;5.350;2023-06-05T12:55:03;29.10;68.90
18753;DHT22;9505;50.882;5.350;2023-06-05T12:57:32;29.00;68.00
18753;DHT22;9505;50.882;5.350;2023-06-05T12:59:58;28.90;66.10
18753;DHT22;9505;50.882;5.350;2023-06-05T13:02:24;28.80;70.40
18753;DHT22;9505;50.882;5.350;2023-06-05T13:04:50;29.10;69.80
18753;DHT22;9505;50.882;5.350;2023-06-05T13:07:16;29.40;67.10
18753;DHT22;9505;50.882;5.350;2023-06-05T13:09:46;29.50;67.40
18753;DHT22;9505;50.882;5.350;2023-06-05T13:12:12;29.60;63.60
18753;DHT22;9505;50.882;5.350;2023-06-05T13:14:38;29.40;66.30
18753;DHT22;9505;50.882;5.350;2023-06-05T13:17:03;28.90;66.80
18753;DHT22;9505;50.882;5.350;2023-06-05T13:19:29;29.00;67.60
18753;DHT22;9505;50.882;5.350;2023-06-05T13:21:54;29.20;67.20
18753;DHT22;9505;50.882;5.350;2023-06-05T13:24:20;29.70;65.60
18753;DHT22;9505;50.882;5.350;2023-06-05T13:26:46;29.70;64.50
18753;DHT22;9505;50.882;5.350;2023-06-05T13:29:12;29.40;64.50
18753;DHT22;9505;50.882;5.350;2023-06-05T13:31:39;29.10;65.20
18753;DHT22;9505;50.882;5.350;2023-06-05T13:34:05;28.80;63.80
18753;DHT22;9505;50.882;5.350;2023-06-05T13:36:31;29.10;65.50
18753;DHT22;9505;50.882;5.350;2023-06-05T13:38:57;29.20;66.30
18753;DHT22;9505;50.882;5.350;2023-06-05T13:41:23;29.50;66.60
18753;DHT22;9505;50.882;5.350;2023-06-05T13:43:48;29.90;70.30
18753;DHT22;9505;50.882;5.350;2023-06-05T13:46:14;30.00;62.90
18753;DHT22;9505;50.882;5.350;2023-06-05T13:48:39;29.90;61.80
18753;DHT22;9505;50.882;5.350;2023-06-05T13:51:05;29.40;62.30
18753;DHT22;9505;50.882;5.350;2023-06-05T13:53:31;29.70;65.80
18753;DHT22;9505;50.882;5.350;2023-06-05T13:56:05;30.40;62.00
18753;DHT22;9505;50.882;5.350;2023-06-05T13:58:31;30.90;63.50
18753;DHT22;9505;50.882;5.350;2023-06-05T14:01:00;31.10;63.50
18753;DHT22;9505;50.882;5.350;2023-06-05T14:03:26;31.00;60.60
18753;DHT22;9505;50.882;5.350;2023-06-05T14:05:52;30.90;60.60
18753;DHT22;9505;50.882;5.350;2023-06-05T14:08:18;30.20;61.80
18753;DHT22;9505;50.882;5.350;2023-06-05T14:10:44;30.90;60.70
18753;DHT22;9505;50.882;5.350;2023-06-05T14:13:10;31.00;59.60
18753;DHT22;9505;50.882;5.350;2023-06-05T14:15:36;31.40;62.10
18753;DHT22;9505;50.882;5.350;2023-06-05T14:18:03;31.30;59.00
18753;DHT22;9505;50.882;5.350;2023-06-05T14:20:30;32.00;62.20
18753;DHT22;9505;50.882;5.350;2023-06-05T14:22:56;32.00;60.50
18753;DHT22;9505;50.882;5.350;2023-06-05T14:25:23;31.40;60.50
18753;DHT22;9505;50.882;5.350;2023-06-05T14:27:53;31.80;60.20
18753;DHT22;9505;50.882;5.350;2023-06-05T14:30:19;31.90;61.10
18753;DHT22;9505;50.882;5.350;2023-06-05T14:32:44;32.20;59.40
18753;DHT22;9505;50.882;5.350;2023-06-05T14:35:10;32.40;59.50
18753;DHT22;9505;50.882;5.350;2023-06-05T14:37:36;32.30;64.20
18753;DHT22;9505;50.882;5.350;2023-06-05T14:40:01;32.30;59.70
18753;DHT22;9505;50.882;5.350;2023-06-05T14:42:27;31.60;59.30
18753;DHT22;9505;50.882;5.350;2023-06-05T14:44:53;31.30;60.40
18753;DHT22;9505;50.882;5.350;2023-06-05T14:47:18;31.20;59.30
18753;DHT22;9505;50.882;5.350;2023-06-05T14:49:44;31.20;59.90
18753;DHT22;9505;50.882;5.350;2023-06-05T14:52:10;31.30;60.90
18753;DHT22;9505;50.882;5.350;2023-06-05T14:54:35;31.20;60.90
18753;DHT22;9505;50.882;5.350;2023-06-05T14:57:01;30.60;60.40
18753;DHT22;9505;50.882;5.350;2023-06-05T14:59:26;31.10;61.40
18753;DHT22;9505;50.882;5.350;2023-06-05T15:01:52;31.70;58.80
18753;DHT22;9505;50.882;5.350;2023-06-05T15:04:18;32.40;59.90
18753;DHT22;9505;50.882;5.350;2023-06-05T15:06:43;32.70;58.70
18753;DHT22;9505;50.882;5.350;2023-06-05T15:09:09;32.50;58.70
18753;DHT22;9505;50.882;5.350;2023-06-05T15:11:35;32.50;59.40
18753;DHT22;9505;50.882;5.350;2023-06-05T15:14:01;32.40;58.40
18753;DHT22;9505;50.882;5.350;2023-06-05T15:16:27;31.60;57.90
18753;DHT22;9505;50.882;5.350;2023-06-05T15:18:53;31.40;57.90
18753;DHT22;9505;50.882;5.350;2023-06-05T15:21:18;30.50;57.10
18753;DHT22;9505;50.882;5.350;2023-06-05T15:23:44;30.30;57.40
18753;DHT22;9505;50.882;5.350;2023-06-05T15:26:09;30.80;60.80
18753;DHT22;9505;50.882;5.350;2023-06-05T15:28:35;31.20;59.20
18753;DHT22;9505;50.882;5.350;2023-06-05T15:31:01;31.30;57.60
18753;DHT22;9505;50.882;5.350;2023-06-05T15:33:26;31.60;58.90
18753;DHT22;9505;50.882;5.350;2023-06-05T15:35:52;31.70;58.90
18753;DHT22;9505;50.882;5.350;2023-06-05T15:38:17;31.90;57.40
18753;DHT22;9505;50.882;5.350;2023-06-05T15:40:43;32.40;58.40
18753;DHT22;9505;50.882;5.350;2023-06-05T15:43:09;32.40;58.70
18753;DHT22;9505;50.882;5.350;2023-06-05T15:45:38;32.60;57.50
18753;DHT22;9505;50.882;5.350;2023-06-05T15:48:05;33.00;56.50
18753;DHT22;9505;50.882;5.350;2023-06-05T15:50:31;33.00;56.40
18753;DHT22;9505;50.882;5.350;2023-06-05T15:52:57;32.90;56.50
18753;DHT22;9505;50.882;5.350;2023-06-05T15:55:23;32.40;55.70
18753;DHT22;9505;50.882;5.350;2023-06-05T15:57:49;32.00;57.30
18753;DHT22;9505;50.882;5.350;2023-06-05T16:00:16;32.10;55.50
18753;DHT22;9505;50.882;5.350;2023-06-05T16:02:42;32.10;56.80
18753;DHT22;9505;50.882;5.350;2023-06-05T16:05:08;32.00;56.90
18753;DHT22;9505;50.882;5.350;2023-06-05T16:07:34;31.70;57.70
18753;DHT22;9505;50.882;5.350;2023-06-05T16:10:00;31.40;57.50
18753;DHT22;9505;50.882;5.350;2023-06-05T16:12:25;31.40;56.00
18753;DHT22;9505;50.882;5.350;2023-06-05T16:14:52;31.30;57.40
18753;DHT22;9505;50.882;5.350;2023-06-05T16:17:18;31.40;58.60
18753;DHT22;9505;50.882;5.350;2023-06-05T16:19:44;31.40;57.10
18753;DHT22;9505;50.882;5.350;2023-06-05T16:22:10;31.10;55.90
18753;DHT22;9505;50.882;5.350;2023-06-05T16:24:36;30.80;56.40
18753;DHT22;9505;50.882;5.350;2023-06-05T16:27:01;30.70;57.40